Golden Triangle Regional Airport
KGTR : now visible

Airfield :











YOU CAN JOIN US ON...

 
LOGIN :

Register | Disclaimer

   EN    FR    IT 

 









Legend :    VFR   Marginal VFR   IFR   Intensive IFR   Very Intensive IFR
Visi :
Ceiling :
>= 8 km
>= 3000ft
5 to 8 km
1000 to 3000 ft
1500m to 5 km
500 to 1000 ft
800 to 1500m
200 to 500 ft
< 800m
< 200 ft
Symbols :   Thunderstorms  Fog  Heavy snow  Heavy precipitations  Wind > 20 kt






- Airport Elevation : 264 ft


KGTR - Golden Triangle Regional

CURRENT METAR :
  • 251856Z 30003KT 10SM OVC009 17/15 A2999 RMK AO2 SLP163 T01670150 PNO $

EXPIRED METARs :
  • 251756Z 29004KT 4SM BR OVC007 16/15 A3002 RMK AO2 SLP173 6//// T01560150 10156 20122 58006 PNO $
  • 251656Z 31005KT 2 1/2SM BR OVC005 16/15 A3004 RMK AO2 CIG 004V008 SLP178 T01560150 PNO $
  • 251643Z 30004KT 3SM BR OVC005 15/14 A3004 RMK AO2 CIG 004V008 PNO $

TAF KGTR
Valid from the 25 at 18:00 until the 26 at 18:00 UTC


251727Z 2518/2618 33004KT 6SM BR OVC011
FM260100 00000KT P6SM BKN035
FM260500 00000KT P6SM BKN022
FM261000 34003KT 5SM -DZ BR OVC007
FM261400 36006KT P6SM BKN013
KZME FIR / North America



MET'MAP, your aeronautical weather chart ! - Copyright ORBIFLY December 2007 - Disclaimer

ORBIFLY MET'MAP TEAM :

Programming & Development : Alexandra Zaïnal
Concept & original design : Baudouin d'Aumeries
Assistance for programming : Marc-Olivier Méhu
Technical & hardware support : Manuel Goepfert

Contact : metmap@orbifly.com




SOURCES & CREDITS :

   NOAA       Earth
Advisory